createdAt,value
2019-03-19T00:00:30.692Z,100670
2019-03-19T00:05:30.673Z,100673
2019-03-19T00:10:30.675Z,100675
2019-03-19T00:15:30.663Z,100676
2019-03-19T00:20:30.684Z,100679
2019-03-19T00:25:30.727Z,100691
2019-03-19T00:30:30.673Z,100682
2019-03-19T00:35:30.676Z,100691
2019-03-19T00:40:30.697Z,100695
2019-03-19T00:45:30.679Z,100705
2019-03-19T00:50:30.680Z,100698
2019-03-19T00:55:40.124Z,100707
2019-03-19T01:00:30.795Z,100713
2019-03-19T01:05:30.684Z,100721
2019-03-19T01:10:30.693Z,100715
2019-03-19T01:15:30.807Z,100712
2019-03-19T01:20:30.736Z,100720
2019-03-19T01:25:30.693Z,100711
2019-03-19T01:30:30.703Z,100718
2019-03-19T01:35:30.698Z,100715
2019-03-19T01:40:30.715Z,100714
2019-03-19T01:45:30.712Z,100723
2019-03-19T01:50:30.706Z,100716
2019-03-19T01:55:30.726Z,100725
2019-03-19T02:00:30.757Z,100730
2019-03-19T02:05:30.710Z,100729
2019-03-19T02:10:30.745Z,100725
2019-03-19T02:15:30.738Z,100738
2019-03-19T02:20:30.718Z,100739
2019-03-19T02:25:30.730Z,100753
2019-03-19T02:30:30.755Z,100746
2019-03-19T02:35:30.798Z,100754
2019-03-19T02:40:30.753Z,100764
2019-03-19T02:45:30.738Z,100769
2019-03-19T02:50:30.741Z,100774
2019-03-19T02:55:30.884Z,100782
2019-03-19T03:00:30.748Z,100787
2019-03-19T03:05:30.745Z,100774
2019-03-19T03:10:30.758Z,100772
2019-03-19T03:15:30.744Z,100775
2019-03-19T03:20:30.761Z,100778
2019-03-19T03:25:30.749Z,100796
2019-03-19T03:30:30.780Z,100795
2019-03-19T03:35:30.813Z,100812
2019-03-19T03:40:30.770Z,100823
2019-03-19T03:45:30.778Z,100832
2019-03-19T03:50:30.758Z,100831
2019-03-19T03:55:31.304Z,100838
2019-03-19T04:00:30.795Z,100845
2019-03-19T04:05:30.783Z,100833
2019-03-19T04:10:30.777Z,100848
2019-03-19T04:15:30.772Z,100854
2019-03-19T04:20:30.775Z,100868
2019-03-19T04:25:30.776Z,100862
2019-03-19T04:30:30.791Z,100862
2019-03-19T04:35:30.794Z,100858
2019-03-19T04:40:30.798Z,100861
2019-03-19T04:45:30.792Z,100870
2019-03-19T04:50:30.784Z,100871
2019-03-19T04:55:30.803Z,100877
2019-03-19T05:00:30.805Z,100894
2019-03-19T05:05:30.804Z,100895
2019-03-19T05:10:30.810Z,100892
2019-03-19T05:15:30.800Z,100905
2019-03-19T05:20:30.798Z,100909
2019-03-19T05:25:30.795Z,100918
2019-03-19T05:30:30.799Z,100914
2019-03-19T05:35:30.821Z,100914
2019-03-19T05:40:30.816Z,100923
2019-03-19T05:45:30.811Z,100925
2019-03-19T05:50:30.820Z,100937
2019-03-19T05:55:30.834Z,100934
2019-03-19T06:00:30.819Z,100938
2019-03-19T06:05:30.825Z,100959
2019-03-19T06:10:30.826Z,100963
2019-03-19T06:15:30.824Z,100962
2019-03-19T06:20:30.827Z,100965
2019-03-19T06:25:30.862Z,100967
2019-03-19T06:30:30.822Z,100983
2019-03-19T06:35:30.836Z,100977
2019-03-19T06:40:30.879Z,100978
2019-03-19T06:45:30.857Z,100979
2019-03-19T06:50:30.844Z,100983
2019-03-19T06:55:30.838Z,100994
2019-03-19T07:00:30.841Z,100995
2019-03-19T07:05:30.840Z,100996
2019-03-19T07:10:30.850Z,101004
2019-03-19T07:15:30.853Z,101011
2019-03-19T07:20:30.851Z,101014
2019-03-19T07:25:30.869Z,101008
2019-03-19T07:30:30.852Z,101016
2019-03-19T07:35:30.853Z,101018
2019-03-19T07:40:30.885Z,101028
2019-03-19T07:45:30.868Z,101020
2019-03-19T07:50:30.872Z,101018
2019-03-19T07:55:30.868Z,101027
2019-03-19T08:00:30.888Z,101028
2019-03-19T08:05:33.219Z,101029
2019-03-19T08:10:30.891Z,101042
2019-03-19T08:15:30.874Z,101042
2019-03-19T08:20:30.889Z,101045
2019-03-19T08:25:30.893Z,101052
2019-03-19T08:30:30.883Z,101062
2019-03-19T08:35:30.914Z,101086
2019-03-19T08:40:30.898Z,101077
2019-03-19T08:45:30.880Z,101079
2019-03-19T08:50:30.898Z,101080
2019-03-19T08:55:30.914Z,101096
2019-03-19T09:00:30.900Z,101085
2019-03-19T09:05:30.891Z,101111
2019-03-19T09:10:30.923Z,101106
2019-03-19T09:15:30.892Z,101125
2019-03-19T09:20:30.913Z,101129
2019-03-19T09:25:30.948Z,101153
2019-03-19T09:30:30.906Z,101158
2019-03-19T09:35:30.925Z,101156
2019-03-19T09:40:30.932Z,101155
2019-03-19T09:45:30.917Z,101144
2019-03-19T09:50:30.928Z,101162
2019-03-19T09:55:30.935Z,101161
2019-03-19T10:00:30.933Z,101171
2019-03-19T10:05:30.919Z,101164
2019-03-19T10:10:30.974Z,101164
2019-03-19T10:15:30.926Z,101166
2019-03-19T10:20:30.939Z,101157
2019-03-19T10:25:30.940Z,101151
2019-03-19T10:30:30.937Z,101154
2019-03-19T10:35:30.993Z,101164
2019-03-19T10:40:30.970Z,101164
2019-03-19T10:45:31.124Z,101160
2019-03-19T10:50:31.167Z,101149
2019-03-19T10:55:31.001Z,101148
2019-03-19T11:00:30.968Z,101153
2019-03-19T11:05:31.050Z,101155
2019-03-19T11:10:31.280Z,101149
2019-03-19T11:15:31.726Z,101156
2019-03-19T11:20:30.948Z,101137
2019-03-19T11:25:30.963Z,101170
2019-03-19T11:30:31.018Z,101164
2019-03-19T11:35:30.987Z,101165
2019-03-19T11:40:30.974Z,101172
2019-03-19T11:45:30.969Z,101184
2019-03-19T11:50:33.125Z,101202
2019-03-19T11:55:30.990Z,101208
2019-03-19T12:00:30.977Z,101218
2019-03-19T12:05:30.979Z,101218
2019-03-19T12:10:31.003Z,101226
2019-03-19T12:15:31.021Z,101233
2019-03-19T12:20:31.007Z,101233
2019-03-19T12:25:31.453Z,101238
2019-03-19T12:30:31.036Z,101227
2019-03-19T12:35:31.095Z,101239
2019-03-19T12:40:36.592Z,101241
2019-03-19T12:45:30.990Z,101236
2019-03-19T12:50:30.998Z,101230
2019-03-19T12:55:31.017Z,101230
2019-03-19T13:00:34.407Z,101227
2019-03-19T13:05:31.005Z,101228
2019-03-19T13:10:31.017Z,101222
2019-03-19T13:15:31.010Z,101226
2019-03-19T13:20:31.012Z,101223
2019-03-19T13:25:31.063Z,101204
2019-03-19T13:30:31.024Z,101207
2019-03-19T13:35:31.041Z,101211
2019-03-19T13:40:31.026Z,101214
2019-03-19T13:45:31.022Z,101201
2019-03-19T13:50:31.026Z,101196
2019-03-19T13:55:31.090Z,101202
2019-03-19T14:00:31.038Z,101217
2019-03-19T14:05:31.021Z,101208
2019-03-19T14:10:31.034Z,101218
2019-03-19T14:15:31.090Z,101229
2019-03-19T14:20:31.053Z,101230
2019-03-19T14:25:31.042Z,101235
2019-03-19T14:30:31.035Z,101232
2019-03-19T14:35:37.108Z,101226
2019-03-19T14:40:31.065Z,101231
2019-03-19T14:45:31.041Z,101240
2019-03-19T14:50:31.045Z,101240
2019-03-19T14:55:31.098Z,101243
2019-03-19T15:00:31.043Z,101238
2019-03-19T15:05:31.045Z,101256
2019-03-19T15:10:31.075Z,101255
2019-03-19T15:15:31.057Z,101261
2019-03-19T15:20:31.052Z,101248
2019-03-19T15:25:31.082Z,101247
2019-03-19T15:30:31.060Z,101261
2019-03-19T15:35:31.058Z,101258
2019-03-19T15:40:31.102Z,101244
2019-03-19T15:45:31.073Z,101253
2019-03-19T15:50:31.110Z,101248
2019-03-19T15:55:31.117Z,101247
2019-03-19T16:00:31.078Z,101266
2019-03-19T16:05:31.072Z,101275
2019-03-19T16:10:31.104Z,101284
2019-03-19T16:15:31.109Z,101286
2019-03-19T16:20:31.095Z,101283
2019-03-19T16:25:31.107Z,101298
2019-03-19T16:30:31.087Z,101304
2019-03-19T16:35:31.095Z,101304
2019-03-19T16:40:31.126Z,101310
2019-03-19T16:45:31.121Z,101314
2019-03-19T16:50:31.120Z,101317
2019-03-19T16:55:31.114Z,101327
2019-03-19T17:00:31.103Z,101320
2019-03-19T17:05:31.101Z,101334
2019-03-19T17:10:31.117Z,101331
2019-03-19T17:15:31.104Z,101334
2019-03-19T17:20:31.102Z,101339
2019-03-19T17:25:31.162Z,101352
2019-03-19T17:30:31.114Z,101365
2019-03-19T17:35:31.124Z,101358
2019-03-19T17:40:40.791Z,101366
2019-03-19T17:45:31.123Z,101360
2019-03-19T17:50:31.116Z,101372
2019-03-19T17:55:31.137Z,101382
2019-03-19T18:00:31.126Z,101403
2019-03-19T18:05:31.122Z,101390
2019-03-19T18:10:31.165Z,101406
2019-03-19T18:15:31.157Z,101402
2019-03-19T18:20:31.148Z,101399
2019-03-19T18:25:31.164Z,101409
2019-03-19T18:30:31.156Z,101409
2019-03-19T18:35:31.167Z,101421
2019-03-19T18:40:31.180Z,101427
2019-03-19T18:45:31.176Z,101435
2019-03-19T18:50:31.178Z,101442
2019-03-19T18:55:31.194Z,101441
2019-03-19T19:00:31.151Z,101439
2019-03-19T19:05:31.146Z,101447
2019-03-19T19:10:31.183Z,101457
2019-03-19T19:15:31.148Z,101453
2019-03-19T19:20:31.171Z,101461
2019-03-19T19:25:31.179Z,101467
2019-03-19T19:30:31.163Z,101469
2019-03-19T19:35:31.177Z,101476
2019-03-19T19:40:31.184Z,101476
2019-03-19T19:45:31.178Z,101489
2019-03-19T19:50:31.216Z,101492
2019-03-19T19:55:31.206Z,101494
2019-03-19T20:00:31.295Z,101499
2019-03-19T20:05:31.175Z,101509
2019-03-19T20:10:31.202Z,101509
2019-03-19T20:15:31.201Z,101513
2019-03-19T20:20:31.191Z,101503
2019-03-19T20:25:31.212Z,101509
2019-03-19T20:30:31.191Z,101514
2019-03-19T20:35:31.197Z,101522
2019-03-19T20:40:31.205Z,101539
2019-03-19T20:45:31.197Z,101534
2019-03-19T20:50:31.225Z,101543
2019-03-19T20:55:31.278Z,101550
2019-03-19T21:00:31.202Z,101549
2019-03-19T21:05:31.237Z,101553
2019-03-19T21:10:31.227Z,101550
2019-03-19T21:15:31.204Z,101569
2019-03-19T21:20:31.218Z,101565
2019-03-19T21:25:31.247Z,101581
2019-03-19T21:30:31.231Z,101578
2019-03-19T21:35:31.229Z,101581
2019-03-19T21:40:31.243Z,101580
2019-03-19T21:45:31.243Z,101588
2019-03-19T21:50:31.218Z,101599
2019-03-19T21:55:31.244Z,101599
2019-03-19T22:00:31.227Z,101602
2019-03-19T22:05:31.260Z,101596
2019-03-19T22:10:31.271Z,101607
2019-03-19T22:15:31.238Z,101603
2019-03-19T22:20:31.240Z,101614
2019-03-19T22:25:31.257Z,101600
2019-03-19T22:30:31.255Z,101607
2019-03-19T22:35:31.247Z,101620
2019-03-19T22:40:31.263Z,101614
2019-03-19T22:45:31.264Z,101627
2019-03-19T22:50:31.301Z,101635
2019-03-19T22:55:31.267Z,101632
2019-03-19T23:00:31.311Z,101633
2019-03-19T23:05:31.266Z,101638
2019-03-19T23:10:31.281Z,101652
2019-03-19T23:15:31.270Z,101649
2019-03-19T23:20:31.273Z,101647
2019-03-19T23:25:31.356Z,101675
2019-03-19T23:30:31.265Z,101665
2019-03-19T23:35:31.270Z,101658
2019-03-19T23:40:31.295Z,101673
2019-03-19T23:45:31.282Z,101671
2019-03-19T23:50:31.280Z,101680
2019-03-19T23:55:31.294Z,101679
